Jena Marie C. — WDD4969 — position and weather

sailwx.info

Track history (hours):
 
Tides and Currents Weather Stations Pressure Air Temp Water Temp Dewpoint Dewpoint Depression Visibility Wind Speed Wind Dir Waves Ship Positions

Jena Marie C.

Owner: Scott C. Marine Towing, LLC, Marrero, LA. More information available from US FCC via Universal Licensing System and Coast Guard Vessel Documentation Center.

Last reported at 2015-Jan-31 21:29 UTC. Time now 2015-Feb-01 11:50 UTC.
Position N 30°03' W 090°02'.

Length 19 m; draft 2.5 m.

Type: Towing. MMSI: 367151880.

Date/timePositionNaut miles runAvg speedWind from/ knotsBaromVisibWave heightAir tempDewpointWater temp
2015-Jan-31 21:29N 30°03' W 090°02'4 0.3
2015-Jan-31 09:33N 29°59' W 090°01'3 3.4
2015-Jan-31 08:33N 29°56' W 090°04'4 0.1
2015-Jan-29 21:15N 29°56' W 090°08'1 1.2
2015-Jan-29 20:25N 29°55' W 090°09'2 0.1
2015-Jan-29 09:26N 29°54' W 090°07'0 0.0
2015-Jan-29 08:33N 29°54' W 090°07'0 0.0
2015-Jan-29 07:29N 29°54' W 090°07'0 0.0
2015-Jan-29 06:33N 29°54' W 090°07'0 0.0
2015-Jan-29 05:33N 29°54' W 090°07'0 0.0
2015-Jan-29 03:05N 29°54' W 090°07'0 0.0
2015-Jan-29 02:33N 29°54' W 090°07'3 2.1
2015-Jan-29 01:17N 29°55' W 090°04'2 1.9
2015-Jan-29 00:17N 29°57' W 090°04'4 4.3
2015-Jan-28 23:19N 29°56' W 089°59'4 5.4
2015-Jan-28 22:32N 29°55' W 090°04'6 3.8
2015-Jan-28 21:05N 29°57' W 090°10'2 1.0
2015-Jan-28 19:12N 29°55' W 090°08'2 2.6
2015-Jan-28 18:33N 29°55' W 090°07'3 3.1
2015-Jan-28 17:31N 29°56' W 090°04'0 0.1
2015-Jan-28 16:32N 29°56' W 090°03'4 0.9
2015-Jan-28 11:32N 29°55' W 090°08'3 3.1
2015-Jan-28 10:31N 29°54' W 090°05'2 1.7
2015-Jan-28 09:06N 29°52' W 090°04'4 0.3
2015-Jan-27 21:25N 29°55' W 090°04'2 1.2
2015-Jan-27 19:24N 29°54' W 090°06'3 0.3
2015-Jan-27 11:32N 29°56' W 090°08'2 2.1
2015-Jan-27 10:31N 29°54' W 090°07'0 0.0
2015-Jan-27 09:25N 29°54' W 090°07'0 0.0
2015-Jan-27 08:28N 29°54' W 090°07'0 0.0
2015-Jan-27 07:18N 29°54' W 090°07'0 0.0
2015-Jan-27 06:29N 29°54' W 090°07'0 0.0
2015-Jan-27 05:32N 29°54' W 090°07'3 0.3
2015-Jan-26 20:23N 29°55' W 090°04'3 3.4
2015-Jan-26 19:32N 29°57' W 090°02'1 1.5
2015-Jan-26 18:33N 29°57' W 090°03'3 2.0
2015-Jan-26 17:12N 29°55' W 090°05'0 0.1
2015-Jan-26 16:30N 29°55' W 090°05'0 0.1
2015-Jan-26 15:33N 29°55' W 090°05'2 0.3
2015-Jan-26 08:32N 29°54' W 090°07'0 0.0
2015-Jan-26 07:32N 29°54' W 090°07'0 0.0
2015-Jan-26 06:33N 29°54' W 090°07'0 0.0
2015-Jan-26 05:32N 29°54' W 090°07'0 0.0
2015-Jan-26 01:22N 29°54' W 090°07'0 0.0
2015-Jan-26 00:19N 29°54' W 090°07'0 0.0
2015-Jan-25 23:27N 29°54' W 090°07'0 0.0
2015-Jan-25 22:33N 29°54' W 090°07'0 0.0
2015-Jan-25 21:28N 29°54' W 090°07'0 0.0
2015-Jan-25 12:13N 29°54' W 090°07'0 0.0
2015-Jan-25 11:31N 29°54' W 090°07'0 0.0
2015-Jan-25 08:32N 29°54' W 090°07'0 0.0
2015-Jan-25 07:31N 29°54' W 090°07'0 0.0
2015-Jan-25 06:32N 29°54' W 090°07'0 0.0
2015-Jan-25 05:32N 29°54' W 090°07'0 0.0
2015-Jan-25 04:31N 29°54' W 090°07'0 0.0
2015-Jan-25 03:25N 29°54' W 090°07'0 0.0
2015-Jan-25 02:28N 29°54' W 090°07'0 0.0
2015-Jan-25 01:26N 29°54' W 090°07'3 3.3
2015-Jan-25 00:33N 29°55' W 090°04'3 2.7
2015-Jan-24 23:28N 29°54' W 090°07'0 0.0
2015-Jan-24 22:31N 29°54' W 090°07'0 0.0
2015-Jan-24 21:33N 29°54' W 090°07'0 0.0
2015-Jan-24 20:31N 29°54' W 090°07'0 0.0
2015-Jan-24 19:29N 29°54' W 090°07'0 0.0
2015-Jan-24 18:27N 29°54' W 090°07'0 0.0
2015-Jan-24 17:26N 29°54' W 090°07'0 0.0
2015-Jan-24 16:07N 29°54' W 090°07'0 0.0
2015-Jan-24 15:28N 29°54' W 090°07'0 0.0
2015-Jan-24 14:19N 29°54' W 090°07'0 0.0
2015-Jan-24 13:32N 29°54' W 090°07'0 0.0
2015-Jan-24 12:28N 29°54' W 090°07'2 0.1
2015-Jan-23 06:21N 29°56' W 090°08'2 0.3
2015-Jan-23 00:28N 29°54' W 090°07'0 0.0
2015-Jan-22 23:26N 29°54' W 090°07'0 0.0
2015-Jan-22 22:32N 29°54' W 090°07'0 0.3
2015-Jan-22 21:30N 29°54' W 090°07'  
Track history (hours):
 
Tides and Currents Weather Stations Pressure Air Temp Water Temp Dewpoint Dewpoint Depression Visibility Wind Speed Wind Dir Waves Ship Positions

Jena Marie C.

Owner: Scott C. Marine Towing, LLC, Marrero, LA. More information available from US FCC via Universal Licensing System and Coast Guard Vessel Documentation Center.

Last reported at 2015-Jan-31 21:29 UTC. Time now 2015-Feb-01 11:50 UTC.
Position N 30°03' W 090°02'.

Length 19 m; draft 2.5 m.

Type: Towing. MMSI: 367151880.

Date/timePositionNaut miles runAvg speedWind from/ knotsBaromVisibWave heightAir tempDewpointWater temp
2015-Jan-31 21:29N 30°03' W 090°02'4 0.3
2015-Jan-31 09:33N 29°59' W 090°01'3 3.4
2015-Jan-31 08:33N 29°56' W 090°04'4 0.1
2015-Jan-29 21:15N 29°56' W 090°08'1 1.2
2015-Jan-29 20:25N 29°55' W 090°09'2 0.1
2015-Jan-29 09:26N 29°54' W 090°07'0 0.0
2015-Jan-29 08:33N 29°54' W 090°07'0 0.0
2015-Jan-29 07:29N 29°54' W 090°07'0 0.0
2015-Jan-29 06:33N 29°54' W 090°07'0 0.0
2015-Jan-29 05:33N 29°54' W 090°07'0 0.0
2015-Jan-29 03:05N 29°54' W 090°07'0 0.0
2015-Jan-29 02:33N 29°54' W 090°07'3 2.1
2015-Jan-29 01:17N 29°55' W 090°04'2 1.9
2015-Jan-29 00:17N 29°57' W 090°04'4 4.3
2015-Jan-28 23:19N 29°56' W 089°59'4 5.4
2015-Jan-28 22:32N 29°55' W 090°04'6 3.8
2015-Jan-28 21:05N 29°57' W 090°10'2 1.0
2015-Jan-28 19:12N 29°55' W 090°08'2 2.6
2015-Jan-28 18:33N 29°55' W 090°07'3 3.1
2015-Jan-28 17:31N 29°56' W 090°04'0 0.1
2015-Jan-28 16:32N 29°56' W 090°03'4 0.9
2015-Jan-28 11:32N 29°55' W 090°08'3 3.1
2015-Jan-28 10:31N 29°54' W 090°05'2 1.7
2015-Jan-28 09:06N 29°52' W 090°04'4 0.3
2015-Jan-27 21:25N 29°55' W 090°04'2 1.2
2015-Jan-27 19:24N 29°54' W 090°06'3 0.3
2015-Jan-27 11:32N 29°56' W 090°08'2 2.1
2015-Jan-27 10:31N 29°54' W 090°07'0 0.0
2015-Jan-27 09:25N 29°54' W 090°07'0 0.0
2015-Jan-27 08:28N 29°54' W 090°07'0 0.0
2015-Jan-27 07:18N 29°54' W 090°07'0 0.0
2015-Jan-27 06:29N 29°54' W 090°07'0 0.0
2015-Jan-27 05:32N 29°54' W 090°07'3 0.3
2015-Jan-26 20:23N 29°55' W 090°04'3 3.4
2015-Jan-26 19:32N 29°57' W 090°02'1 1.5
2015-Jan-26 18:33N 29°57' W 090°03'3 2.0
2015-Jan-26 17:12N 29°55' W 090°05'0 0.1
2015-Jan-26 16:30N 29°55' W 090°05'0 0.1
2015-Jan-26 15:33N 29°55' W 090°05'2 0.3
2015-Jan-26 08:32N 29°54' W 090°07'0 0.0
2015-Jan-26 07:32N 29°54' W 090°07'0 0.0
2015-Jan-26 06:33N 29°54' W 090°07'0 0.0
2015-Jan-26 05:32N 29°54' W 090°07'0 0.0
2015-Jan-26 01:22N 29°54' W 090°07'0 0.0
2015-Jan-26 00:19N 29°54' W 090°07'0 0.0
2015-Jan-25 23:27N 29°54' W 090°07'0 0.0
2015-Jan-25 22:33N 29°54' W 090°07'0 0.0
2015-Jan-25 21:28N 29°54' W 090°07'0 0.0
2015-Jan-25 12:13N 29°54' W 090°07'0 0.0
2015-Jan-25 11:31N 29°54' W 090°07'0 0.0
2015-Jan-25 08:32N 29°54' W 090°07'0 0.0
2015-Jan-25 07:31N 29°54' W 090°07'0 0.0
2015-Jan-25 06:32N 29°54' W 090°07'0 0.0
2015-Jan-25 05:32N 29°54' W 090°07'0 0.0
2015-Jan-25 04:31N 29°54' W 090°07'0 0.0
2015-Jan-25 03:25N 29°54' W 090°07'0 0.0
2015-Jan-25 02:28N 29°54' W 090°07'0 0.0
2015-Jan-25 01:26N 29°54' W 090°07'3 3.3
2015-Jan-25 00:33N 29°55' W 090°04'3 2.7
2015-Jan-24 23:28N 29°54' W 090°07'0 0.0
2015-Jan-24 22:31N 29°54' W 090°07'0 0.0
2015-Jan-24 21:33N 29°54' W 090°07'0 0.0
2015-Jan-24 20:31N 29°54' W 090°07'0 0.0
2015-Jan-24 19:29N 29°54' W 090°07'0 0.0
2015-Jan-24 18:27N 29°54' W 090°07'0 0.0
2015-Jan-24 17:26N 29°54' W 090°07'0 0.0
2015-Jan-24 16:07N 29°54' W 090°07'0 0.0
2015-Jan-24 15:28N 29°54' W 090°07'0 0.0
2015-Jan-24 14:19N 29°54' W 090°07'0 0.0
2015-Jan-24 13:32N 29°54' W 090°07'0 0.0
2015-Jan-24 12:28N 29°54' W 090°07'2 0.1
2015-Jan-23 06:21N 29°56' W 090°08'2 0.3
2015-Jan-23 00:28N 29°54' W 090°07'0 0.0
2015-Jan-22 23:26N 29°54' W 090°07'0 0.0
2015-Jan-22 22:32N 29°54' W 090°07'0 0.3
2015-Jan-22 21:30N 29°54' W 090°07'  

Dump ship's entire track history